Date,TemperatureHighF,TemperatureAvgF,TemperatureLowF,DewpointHighF,DewpointAvgF,DewpointLowF,HumidityHigh,HumidityAvg,HumidityLow,PressureMaxIn,PressureMinIn,WindSpeedMaxMPH,WindSpeedAvgMPH,GustSpeedMaxMPH,PrecipitationSumIn
2013-3-1,38.7,35.6,32.2,37.5,32.5,27.8,98,89,77,30.18,30.00,13,4,13,0.00
2013-3-2,45.0,36.2,28.2,28.3,25.3,22.6,81,66,44,30.18,30.06,8,3,8,0.00
2013-3-3,46.9,35.8,26.1,28.3,24.7,22.1,89,66,41,30.15,30.00,17,5,17,0.00
2013-3-4,47.8,34.8,26.2,26.2,22.8,20.8,85,64,39,30.33,30.06,13,2,13,0.00
2013-3-5,50.4,37.8,25.9,27.7,23.1,20.0,79,57,37,30.36,30.12,14,3,14,0.00
2013-3-6,49.3,41.9,33.3,37.6,30.7,23.2,75,64,57,30.18,29.83,10,3,10,0.00
2013-3-7,53.2,48.6,44.6,45.3,42.2,37.5,86,79,72,29.83,29.65,8,3,8,0.01
2013-3-8,55.8,47.6,44.4,49.5,46.0,43.1,98,94,78,29.71,29.53,8,4,8,0.07
2013-3-9,55.6,49.6,45.5,51.8,47.5,45.0,98,93,79,29.59,29.53,6,2,6,0.02
2013-3-10,54.9,49.3,45.7,49.7,46.3,43.1,98,90,72,29.56,29.41,10,2,10,0.03
2013-3-11,57.4,47.1,38.1,45.8,39.5,31.7,98,77,47,29.59,29.47,13,4,13,0.03
2013-3-12,55.2,46.2,36.0,42.2,36.5,30.1,88,69,53,29.59,29.41,11,2,11,0.04
2013-3-13,49.5,46.1,43.9,47.1,43.8,40.8,98,92,79,29.50,29.41,7,2,7,0.09
2013-3-14,45.1,36.7,27.1,43.8,36.1,26.7,98,98,94,29.47,29.29,17,8,17,0.49
2013-3-15,28.6,26.4,23.5,27.0,21.3,13.8,98,83,56,29.88,29.29,20,8,20,0.05
2013-3-16,33.8,27.7,20.3,18.4,16.1,12.0,80,63,43,30.15,29.88,13,4,13,0.05
2013-3-17,35.6,27.0,18.5,22.4,17.3,13.6,83,67,53,30.15,30.00,15,5,15,0.00
2013-3-18,36.3,31.8,26.8,35.8,25.7,15.0,98,79,59,30.03,29.38,21,10,21,0.36
2013-3-19,50.2,42.1,32.2,30.5,29.0,26.4,79,61,42,29.71,29.41,26,5,26,0.01
2013-3-20,57.6,44.2,29.8,39.3,33.8,25.8,93,69,40,29.77,29.71,14,2,14,0.01
2013-3-21,46.0,41.4,34.5,43.1,39.4,29.8,98,93,77,29.80,29.71,20,8,20,0.50
2013-3-22,42.6,35.7,29.3,29.9,25.3,20.7,83,66,50,30.00,29.77,22,10,22,0.50
2013-3-23,33.1,29.3,25.7,24.0,21.7,15.5,83,73,64,30.12,29.94,10,2,10,0.00
2013-3-24,34.0,27.1,20.8,15.9,10.4,6.9,64,49,41,30.21,30.06,14,6,14,0.00
2013-3-25,34.9,29.5,26.2,25.7,15.7,8.2,91,59,42,30.09,29.71,15,6,15,0.33
2013-3-26,32.7,28.9,26.1,27.3,25.6,23.5,93,87,77,29.80,29.68,8,4,8,0.10
2013-3-27,32.5,29.4,26.1,29.7,27.0,24.1,95,91,83,29.94,29.77,4,4,4,0.03
2013-3-28,37.4,33.0,30.2,31.1,28.6,25.0,97,84,68,30.06,29.94,4,4,4,0.02
2013-3-29,36.9,33.9,32.2,36.3,32.6,28.8,98,95,86,29.97,29.71,5,4,5,0.54
2013-3-30,45.3,39.2,32.9,41.9,37.4,32.4,98,93,80,29.77,29.53,15,4,15,0.22
2013-3-31,48.0,41.0,31.5,47.5,40.1,27.5,98,97,85,29.62,29.35,17,7,17,0.24